Terminal Aerodrome Forecast
Issued by NWS

Home | Current Version | Previous Version | Text Only | Print | Product List | Glossary On
Versions: 1 2 3 4 5 6 7 8 9 10 11 12 13 14 15 16 17 18
848
FTUS42 TJSJ 180545
TAFJSJ
TAF
TJSJ 180545Z 1806/1906 06014KT P6SM -SHRA SCT030 BKN060
     FM181430 06017G25KT P6SM VCSH SCT025 SCT050 SCT080
     FM182300 06010KT P6SM -SHRA SCT030 BKN070=

USA.gov is the U.S. government's official web portal to all federal, state and local government web resources and services.